Time;durP1;ratioP1;P1;durP2;ratioP2;P2;SDS_P1;SDS_P2;PMS_P1;PMS_P2;Temp;Humidity;BMP_temperature;BMP_pressure;BME280_temperature;BME280_humidity;BME280_pressure;Samples;Min_cycle;Max_cycle;Signal;HPM_P1;HPM_P2
2022/04/10 00:01:17;;;;;;;;;;;;;;;27.29;26.65;99462.31;5022349;28;846;-40
2022/04/10 00:03:42;;;;;;;;;;;;;;;27.19;26.71;99460.94;5016992;28;882;-40
2022/04/10 00:06:07;;;;;;;;;;;;;;;27.46;26.72;99463.47;5016630;28;835;-42
2022/04/10 00:08:33;;;;;;;;;;;;;;;27.68;26.26;99459.59;5016701;28;893;-40
2022/04/10 00:10:58;;;;;;;;;;;;;;;27.32;26.77;99465.44;5020997;28;844;-41
2022/04/10 00:13:23;;;;;;;;;;;;;;;27.31;26.47;99455.66;5018994;28;1910;-41
2022/04/10 00:15:49;;;;;;;;;;;;;;;27.33;26.32;99471.63;5016627;28;822;-41
2022/04/10 00:18:14;;;;;;;;;;;;;;;27.47;26.33;99458.91;5016891;28;1028;-41
2022/04/10 00:20:39;;;;;;;;;;;;;;;27.54;26.16;99462.41;5016571;28;803;-41
2022/04/10 00:23:04;;;;;;;;;;;;;;;27.31;26.37;99468.34;5016614;28;776;-40
2022/04/10 00:25:30;;;;;;;;;;;;;;;27.20;26.67;99464.44;5025956;28;1514;-40
2022/04/10 00:27:55;;;;;;;;;;;;;;;27.39;26.29;99463.50;5020730;28;958;-40
2022/04/10 00:30:20;;;;;;;;;;;;;;;27.30;26.21;99459.41;5018725;28;1048;-41
2022/04/10 00:32:46;;;;;;;;;;;;;;;27.26;26.54;99466.28;5020895;28;749;-40
2022/04/10 00:35:11;;;;;;;;;;;;;;;27.29;26.24;99455.06;5020590;28;1902;-40
2022/04/10 00:37:37;;;;;;;;;;;;;;;27.29;26.38;99455.06;5021621;28;919;-40
2022/04/10 00:40:06;;;;;;;;;;;;;;;27.35;26.31;99462.28;5026392;28;1135;-42
2022/04/10 00:42:32;;;;;;;;;;;;;;;27.43;26.17;99452.25;5020890;28;826;-40
2022/04/10 00:44:57;;;;;;;;;;;;;;;27.38;26.53;99452.91;5020727;28;840;-41
2022/04/10 00:47:22;;;;;;;;;;;;;;;27.39;26.65;99460.81;5020721;28;965;-41
2022/04/10 00:49:48;;;;;;;;;;;;;;;27.59;26.30;99451.75;5020152;28;933;-41
2022/04/10 00:52:13;;;;;;;;;;;;;;;27.69;26.03;99451.31;5023832;28;916;-41
2022/04/10 00:54:38;;;;;;;;;;;;;;;27.61;25.87;99451.56;5024019;28;1973;-41
2022/04/10 00:57:04;;;;;;;;;;;;;;;27.46;26.14;99446.44;5018367;28;840;-40
2022/04/10 00:59:29;;;;;;;;;;;;;;;27.41;26.37;99444.38;5020047;28;790;-41
2022/04/10 01:01:54;;;;;;;;;;;;;;;27.37;26.41;99446.72;5020090;28;1440;-42
2022/04/10 01:04:19;;;;;;;;;;;;;;;27.39;26.28;99441.91;5021059;28;810;-40
2022/04/10 01:06:48;;;;;;;;;;;;;;;27.40;26.29;99445.44;5020091;28;766;-41
2022/04/10 01:09:14;;;;;;;;;;;;;;;27.38;26.09;99442.13;5022906;28;857;-40
2022/04/10 01:11:39;;;;;;;;;;;;;;;27.35;26.10;99442.56;5019665;28;826;-40
2022/04/10 01:14:04;;;;;;;;;;;;;;;27.37;26.00;99449.41;5018366;28;1965;-40
2022/04/10 01:16:31;;;;;;;;;;;;;;;27.31;26.43;99452.16;5024423;28;1054;-40
2022/04/10 01:18:56;;;;;;;;;;;;;;;27.34;26.49;99451.72;5019586;28;895;-40
2022/04/10 01:21:22;;;;;;;;;;;;;;;27.28;26.75;99456.09;5019652;28;870;-40
2022/04/10 01:23:48;;;;;;;;;;;;;;;27.30;26.55;99455.88;5021422;28;838;-39
2022/04/10 01:26:13;;;;;;;;;;;;;;;27.37;26.83;99456.69;5025670;28;757;-40
2022/04/10 01:28:54;;;;;;;;;;;;;;;27.21;26.98;99445.31;5020537;28;866;-39
2022/04/10 01:31:19;;;;;;;;;;;;;;;27.30;26.84;99453.16;5019441;28;1008;-40
2022/04/10 01:33:45;;;;;;;;;;;;;;;27.49;26.12;99449.53;5019784;28;1895;-40
2022/04/10 01:36:10;;;;;;;;;;;;;;;27.45;26.03;99445.63;5018848;28;806;-39
2022/04/10 01:38:35;;;;;;;;;;;;;;;27.47;26.20;99440.84;5019006;28;1485;-41
2022/04/10 01:41:00;;;;;;;;;;;;;;;27.62;26.06;99445.09;5023222;28;1111;-40
2022/04/10 01:43:26;;;;;;;;;;;;;;;27.65;26.00;99438.41;5023750;28;889;-40
2022/04/10 01:45:51;;;;;;;;;;;;;;;27.71;25.84;99438.41;5018934;28;874;-40
2022/04/10 01:48:16;;;;;;;;;;;;;;;27.67;25.74;99433.63;5019341;28;806;-39
2022/04/10 01:50:42;;;;;;;;;;;;;;;27.80;25.50;99444.38;5019079;28;844;-40
2022/04/10 01:53:07;;;;;;;;;;;;;;;27.84;25.58;99444.78;5019203;28;874;-40
2022/04/10 01:55:32;;;;;;;;;;;;;;;27.77;25.43;99443.97;5022681;28;1973;-40
2022/04/10 01:57:57;;;;;;;;;;;;;;;27.81;25.64;99440.63;5018626;28;922;-40
2022/04/10 02:00:23;;;;;;;;;;;;;;;27.77;25.60;99444.81;5018895;28;765;-40
2022/04/10 02:02:48;;;;;;;;;;;;;;;27.82;25.52;99449.56;5019123;28;762;-40
2022/04/10 02:05:13;;;;;;;;;;;;;;;27.80;25.96;99446.25;5019171;28;835;-41
2022/04/10 02:07:39;;;;;;;;;;;;;;;27.86;25.35;99448.88;5022729;28;1102;-40
2022/04/10 02:10:04;;;;;;;;;;;;;;;27.82;25.63;99449.56;5020923;28;885;-40
2022/04/10 02:12:31;;;;;;;;;;;;;;;27.84;25.81;99452.88;5018690;28;754;-41
2022/04/10 02:14:56;;;;;;;;;;;;;;;27.83;25.62;99445.78;5018793;28;1902;-40
2022/04/10 02:17:21;;;;;;;;;;;;;;;27.78;25.70;99445.66;5018996;28;836;-41
2022/04/10 02:19:46;;;;;;;;;;;;;;;27.89;25.55;99433.28;5018886;28;885;-40
2022/04/10 02:22:12;;;;;;;;;;;;;;;27.93;25.78;99435.31;5018911;28;727;-40
2022/04/10 02:24:37;;;;;;;;;;;;;;;27.86;25.57;99421.06;5023288;28;908;-41
2022/04/10 02:27:02;;;;;;;;;;;;;;;27.86;25.82;99416.47;5018543;28;803;-40
2022/04/10 02:29:28;;;;;;;;;;;;;;;27.94;25.80;99419.94;5018249;28;754;-41
2022/04/10 02:31:53;;;;;;;;;;;;;;;27.83;25.63;99426.88;5018170;28;801;-40
2022/04/10 02:34:18;;;;;;;;;;;;;;;27.86;25.96;99419.16;5021981;28;1898;-40
2022/04/10 02:36:44;;;;;;;;;;;;;;;27.70;25.73;99414.31;5018114;28;845;-40
2022/04/10 02:39:09;;;;;;;;;;;;;;;27.55;25.99;99411.88;5019331;28;1681;-40
2022/04/10 02:41:34;;;;;;;;;;;;;;;27.48;26.57;99410.06;5018091;28;845;-42
2022/04/10 02:43:59;;;;;;;;;;;;;;;27.46;26.21;99422.16;5018183;28;821;-40
2022/04/10 02:46:25;;;;;;;;;;;;;;;27.47;26.40;99419.22;5018293;28;794;-41
2022/04/10 02:48:50;;;;;;;;;;;;;;;27.39;26.77;99431.09;5017830;28;775;-41
2022/04/10 02:51:16;;;;;;;;;;;;;;;27.37;26.76;99441.31;5017673;28;882;-43
2022/04/10 02:53:41;;;;;;;;;;;;;;;27.45;26.22;99440.22;5019349;28;1898;-42
2022/04/10 02:56:06;;;;;;;;;;;;;;;27.35;26.42;99445.25;5019692;28;790;-40
2022/04/10 02:58:31;;;;;;;;;;;;;;;27.39;26.64;99446.50;5021018;28;837;-41
2022/04/10 03:00:57;;;;;;;;;;;;;;;27.35;26.46;99448.78;5015940;28;822;-40
2022/04/10 03:03:22;;;;;;;;;;;;;;;27.35;26.60;99462.28;5018006;28;803;-41
2022/04/10 03:05:47;;;;;;;;;;;;;;;27.32;26.55;99461.88;5017514;28;940;-41
2022/04/10 03:08:13;;;;;;;;;;;;;;;27.38;26.27;99467.25;5017511;28;1520;-42
2022/04/10 03:10:38;;;;;;;;;;;;;;;27.44;26.49;99478.25;5018346;28;814;-41
2022/04/10 03:13:04;;;;;;;;;;;;;;;27.36;26.14;99484.72;5017543;28;996;-40
2022/04/10 03:15:29;;;;;;;;;;;;;;;27.51;26.11;99492.53;5017254;28;1898;-40
2022/04/10 03:17:54;;;;;;;;;;;;;;;27.55;26.16;99490.22;5031560;28;1220;-41
2022/04/10 03:20:20;;;;;;;;;;;;;;;27.37;26.35;99498.03;5036580;28;885;-40
2022/04/10 03:22:45;;;;;;;;;;;;;;;27.37;26.25;99506.13;5036279;28;887;-41
2022/04/10 03:25:10;;;;;;;;;;;;;;;27.21;26.22;99515.50;5029063;28;877;-41
2022/04/10 03:27:36;;;;;;;;;;;;;;;27.38;26.48;99509.63;5017470;28;754;-42
2022/04/10 03:30:02;;;;;;;;;;;;;;;27.52;26.32;99507.69;5017768;28;854;-40
2022/04/10 03:32:27;;;;;;;;;;;;;;;27.69;26.38;99502.66;5032836;28;1057;-39
2022/04/10 03:34:53;;;;;;;;;;;;;;;27.79;26.01;99504.88;5035494;28;1969;-39
2022/04/10 03:37:18;;;;;;;;;;;;;;;27.77;25.99;99506.13;5030648;28;818;-38
2022/04/10 03:39:43;;;;;;;;;;;;;;;27.16;26.80;99501.81;5021103;28;1103;-37
2022/04/10 03:42:08;;;;;;;;;;;;;;;27.09;26.83;99506.44;5017125;28;755;-37
2022/04/10 03:44:34;;;;;;;;;;;;;;;27.02;27.16;99511.84;5017453;28;815;-36
2022/04/10 03:46:59;;;;;;;;;;;;;;;26.72;27.05;99510.47;5017326;28;882;-36
2022/04/10 03:49:24;;;;;;;;;;;;;;;26.72;27.07;99515.84;5019829;28;919;-36
2022/04/10 03:51:50;;;;;;;;;;;;;;;26.63;26.93;99527.88;5017116;28;814;-36
2022/04/10 03:54:15;;;;;;;;;;;;;;;26.52;27.24;99529.34;5019558;28;1957;-36
2022/04/10 03:56:40;;;;;;;;;;;;;;;26.41;27.20;99539.72;5016976;28;1038;-36
2022/04/10 03:59:05;;;;;;;;;;;;;;;26.45;27.63;99532.06;5021335;28;1328;-37
2022/04/10 04:01:31;;;;;;;;;;;;;;;26.39;27.56;99532.91;5025184;28;789;-38
2022/04/10 04:03:56;;;;;;;;;;;;;;;26.30;28.09;99537.63;5031825;28;873;-37
2022/04/10 04:06:21;;;;;;;;;;;;;;;26.16;28.05;99532.22;5031816;28;878;-37
2022/04/10 04:08:47;;;;;;;;;;;;;;;26.38;28.41;99537.44;5034138;28;892;-40
2022/04/10 04:11:12;;;;;;;;;;;;;;;26.32;28.42;99534.72;5030559;28;826;-38
2022/04/10 04:13:38;;;;;;;;;;;;;;;26.34;28.42;99533.50;5035707;28;1902;-39
2022/04/10 04:16:04;;;;;;;;;;;;;;;26.33;28.33;99534.53;5022769;28;863;-41
2022/04/10 04:18:30;;;;;;;;;;;;;;;26.34;27.97;99532.69;5016107;28;905;-41
2022/04/10 04:20:55;;;;;;;;;;;;;;;26.33;28.32;99536.41;5016715;28;823;-40
2022/04/10 04:23:20;;;;;;;;;;;;;;;26.32;27.84;99532.03;5016773;28;814;-40
2022/04/10 04:25:46;;;;;;;;;;;;;;;26.31;28.07;99525.78;5021502;28;956;-38
2022/04/10 04:28:11;;;;;;;;;;;;;;;26.28;27.93;99521.66;5022659;28;849;-40
2022/04/10 04:30:36;;;;;;;;;;;;;;;26.29;28.51;99522.50;5016809;28;831;-39
2022/04/10 04:33:02;;;;;;;;;;;;;;;26.40;27.98;99515.66;5016227;28;825;-37
2022/04/10 04:35:27;;;;;;;;;;;;;;;26.15;28.63;99517.09;5016587;28;1977;-40
2022/04/10 04:37:52;;;;;;;;;;;;;;;25.98;28.59;99513.13;5016465;28;1250;-40
2022/04/10 04:40:18;;;;;;;;;;;;;;;25.83;29.14;99514.16;5021417;28;1850;-32
2022/04/10 04:42:43;;;;;;;;;;;;;;;25.82;29.13;99508.97;5016077;28;889;-34
2022/04/10 04:45:09;;;;;;;;;;;;;;;25.76;29.55;99514.13;5016744;28;842;-34
2022/04/10 04:47:35;;;;;;;;;;;;;;;25.78;29.51;99504.00;5016435;28;913;-34
2022/04/10 04:50:00;;;;;;;;;;;;;;;25.66;29.85;99513.69;5026315;28;1377;-34
2022/04/10 04:52:25;;;;;;;;;;;;;;;25.67;30.08;99521.56;5018493;28;851;-34
2022/04/10 04:54:50;;;;;;;;;;;;;;;25.71;30.27;99516.59;5027554;28;1910;-34
2022/04/10 04:57:16;;;;;;;;;;;;;;;25.62;30.56;99517.81;5016243;28;898;-34
2022/04/10 04:59:41;;;;;;;;;;;;;;;25.76;30.42;99524.91;5016688;28;806;-34
2022/04/10 05:02:06;;;;;;;;;;;;;;;25.59;30.23;99510.13;5016770;28;834;-35
2022/04/10 05:04:31;;;;;;;;;;;;;;;25.60;29.89;99503.72;5016315;28;903;-34
2022/04/10 05:06:57;;;;;;;;;;;;;;;25.64;29.78;99499.63;5018714;28;914;-34
2022/04/10 05:09:22;;;;;;;;;;;;;;;25.54;30.07;99495.41;5022156;28;871;-34
2022/04/10 05:11:47;;;;;;;;;;;;;;;25.46;30.05;99497.47;5016944;28;818;-34
2022/04/10 05:14:13;;;;;;;;;;;;;;;25.36;30.21;99503.25;5019880;28;1960;-34
2022/04/10 05:16:38;;;;;;;;;;;;;;;25.23;30.59;99509.38;5019924;28;897;-34
2022/04/10 05:19:03;;;;;;;;;;;;;;;24.91;31.45;99509.84;5024574;28;825;-34
2022/04/10 05:21:29;;;;;;;;;;;;;;;25.04;31.37;99509.91;5019757;28;917;-34
2022/04/10 05:23:54;;;;;;;;;;;;;;;25.31;30.73;99514.59;5022110;28;828;-35
2022/04/10 05:26:19;;;;;;;;;;;;;;;25.28;30.65;99513.13;5021010;28;877;-34
2022/04/10 05:28:44;;;;;;;;;;;;;;;25.38;30.65;99509.22;5019889;28;874;-34
2022/04/10 05:31:10;;;;;;;;;;;;;;;25.41;30.36;99501.59;5021321;28;948;-34
2022/04/10 05:33:35;;;;;;;;;;;;;;;25.41;30.46;99506.13;5019394;28;1886;-34
2022/04/10 05:36:00;;;;;;;;;;;;;;;25.43;30.65;99515.69;5019780;28;739;-34
2022/04/10 05:38:26;;;;;;;;;;;;;;;25.61;30.24;99516.97;5019716;28;1002;-32
2022/04/10 05:40:54;;;;;;;;;;;;;;;25.46;30.63;99511.75;5021435;28;1046;-34
2022/04/10 05:43:23;;;;;;;;;;;;;;;25.41;30.93;99517.72;5020147;28;1472;-34
2022/04/10 05:45:48;;;;;;;;;;;;;;;25.49;30.63;99510.53;5033803;28;1080;-34
2022/04/10 05:48:13;;;;;;;;;;;;;;;25.44;30.59;99503.88;5029102;28;822;-33
2022/04/10 05:50:39;;;;;;;;;;;;;;;25.28;30.41;99499.69;5027075;28;1168;-32
2022/04/10 05:53:04;;;;;;;;;;;;;;;25.36;30.53;99495.16;5034889;28;1243;-34
2022/04/10 05:55:29;;;;;;;;;;;;;;;25.46;30.46;99497.47;5033350;28;1910;-34
2022/04/10 05:57:55;;;;;;;;;;;;;;;25.48;30.52;99501.59;5037604;28;1314;-34
2022/04/10 06:00:21;;;;;;;;;;;;;;;25.50;31.16;99502.25;5036588;28;1350;-37
2022/04/10 06:02:46;;;;;;;;;;;;;;;25.82;29.69;99490.94;5035657;28;1294;-35
2022/04/10 06:05:11;;;;;;;;;;;;;;;25.92;30.05;99488.66;5037492;28;1290;-36
2022/04/10 06:07:37;;;;;;;;;;;;;;;26.18;29.45;99475.41;5037619;28;1278;-39
2022/04/10 06:10:02;;;;;;;;;;;;;;;26.20;29.44;99478.75;5035443;28;1238;-38
2022/04/10 06:12:28;;;;;;;;;;;;;;;26.28;29.15;99477.69;5034915;28;1180;-37
2022/04/10 06:14:56;;;;;;;;;;;;;;;26.23;29.41;99481.00;5037503;28;1967;-36
2022/04/10 06:17:22;;;;;;;;;;;;;;;26.36;29.42;99484.78;5037550;28;1119;-37
2022/04/10 06:19:47;;;;;;;;;;;;;;;26.41;29.47;99474.19;5037437;28;1223;-38
2022/04/10 06:22:14;;;;;;;;;;;;;;;26.70;29.23;99468.53;5033328;28;1132;-37
2022/04/10 06:24:39;;;;;;;;;;;;;;;26.52;29.48;99465.47;5036189;28;1104;-39
2022/04/10 06:27:04;;;;;;;;;;;;;;;26.37;29.62;99467.56;5036850;28;1199;-38
2022/04/10 06:29:30;;;;;;;;;;;;;;;26.44;29.46;99470.25;5037387;28;1104;-37
2022/04/10 06:31:55;;;;;;;;;;;;;;;26.61;29.18;99467.94;5034281;28;1171;-38
2022/04/10 06:34:21;;;;;;;;;;;;;;;26.73;28.98;99471.63;5028244;28;1949;-39
2022/04/10 06:36:46;;;;;;;;;;;;;;;26.70;28.71;99472.06;5020844;28;845;-39
2022/04/10 06:39:11;;;;;;;;;;;;;;;26.48;28.97;99475.00;5022918;28;1164;-36
2022/04/10 06:41:37;;;;;;;;;;;;;;;26.46;28.67;99477.06;5021876;28;877;-40
2022/04/10 06:44:02;;;;;;;;;;;;;;;26.51;28.38;99474.59;5018539;28;810;-38
2022/04/10 06:46:27;;;;;;;;;;;;;;;26.67;27.95;99474.34;5017848;28;814;-40
2022/04/10 06:48:53;;;;;;;;;;;;;;;26.51;28.01;99479.13;5021202;28;1135;-37
2022/04/10 06:51:18;;;;;;;;;;;;;;;26.67;27.87;99475.19;5034853;28;1135;-38
2022/04/10 06:53:44;;;;;;;;;;;;;;;26.78;27.31;99476.38;5031484;28;1926;-39
2022/04/10 06:56:09;;;;;;;;;;;;;;;26.95;26.46;99473.22;5034993;28;1130;-39
2022/04/10 06:58:34;;;;;;;;;;;;;;;26.95;27.30;99465.97;5033631;28;1247;-37
2022/04/10 07:01:00;;;;;;;;;;;;;;;26.80;27.42;99458.13;5021755;28;917;-39
2022/04/10 07:03:25;;;;;;;;;;;;;;;26.86;27.15;99456.47;5018187;28;831;-38
2022/04/10 07:05:50;;;;;;;;;;;;;;;26.87;27.16;99461.66;5017543;28;902;-38
2022/04/10 07:08:16;;;;;;;;;;;;;;;27.16;27.10;99465.94;5017736;28;925;-39
2022/04/10 07:10:41;;;;;;;;;;;;;;;27.08;27.22;99467.81;5022353;28;802;-39
2022/04/10 07:13:06;;;;;;;;;;;;;;;27.24;26.72;99474.59;5017803;28;817;-39
2022/04/10 07:15:31;;;;;;;;;;;;;;;27.15;26.58;99473.19;5017717;28;1894;-39
2022/04/10 07:17:58;;;;;;;;;;;;;;;27.12;26.72;99474.44;5017927;28;835;-40
2022/04/10 07:20:23;;;;;;;;;;;;;;;27.12;26.94;99469.06;5017568;28;804;-39
2022/04/10 07:25:33;;;;;;;;;;;;;;;27.33;26.13;99475.19;5023228;28;703;-38
2022/04/10 07:27:58;;;;;;;;;;;;;;;27.29;26.60;99484.75;5017467;28;992;-37
2022/04/10 07:30:23;;;;;;;;;;;;;;;27.39;26.21;99501.31;5036890;28;835;-36
2022/04/10 07:32:52;;;;;;;;;;;;;;;27.24;26.45;99519.69;5034843;28;1111;-38
2022/04/10 07:35:17;;;;;;;;;;;;;;;26.29;27.67;99499.03;5035248;28;1976;-34
2022/04/10 07:37:42;;;;;;;;;;;;;;;26.29;28.49;99512.53;5019619;28;858;-34
2022/04/10 07:40:08;;;;;;;;;;;;;;;26.27;28.77;99508.38;5022913;28;956;-37
2022/04/10 07:42:37;;;;;;;;;;;;;;;26.34;28.61;99527.28;5027126;28;1156;-32
2022/04/10 07:45:03;;;;;;;;;;;;;;;26.23;27.88;99526.00;5017270;28;900;-41
2022/04/10 07:47:31;;;;;;;;;;;;;;;26.16;27.46;99524.13;5016822;28;858;-38
2022/04/10 07:49:56;;;;;;;;;;;;;;;26.33;27.31;99531.00;5017201;28;861;-39
2022/04/10 07:52:22;;;;;;;;;;;;;;;26.49;27.53;99525.19;5020397;28;914;-39
2022/04/10 07:54:48;;;;;;;;;;;;;;;26.68;27.34;99525.38;5021950;28;1961;-40
2022/04/10 07:57:13;;;;;;;;;;;;;;;26.78;27.40;99528.50;5017243;28;884;-38
2022/04/10 07:59:38;;;;;;;;;;;;;;;26.87;27.52;99533.66;5032557;28;1096;-39
2022/04/10 08:02:04;;;;;;;;;;;;;;;26.94;27.40;99547.97;5031823;28;1210;-40
2022/04/10 08:04:29;;;;;;;;;;;;;;;26.93;27.11;99548.16;5022863;28;902;-40
2022/04/10 08:06:54;;;;;;;;;;;;;;;26.93;27.01;99538.19;5017132;28;818;-39
2022/04/10 08:09:20;;;;;;;;;;;;;;;27.04;26.95;99527.84;5019541;28;894;-39
2022/04/10 08:11:45;;;;;;;;;;;;;;;27.14;26.65;99518.22;5017040;28;910;-39
2022/04/10 08:14:10;;;;;;;;;;;;;;;27.10;26.71;99518.88;5018699;28;1902;-39
2022/04/10 08:16:36;;;;;;;;;;;;;;;27.15;26.83;99521.78;5031686;28;1349;-39
2022/04/10 08:19:01;;;;;;;;;;;;;;;26.93;27.34;99535.50;5018928;28;992;-39
2022/04/10 08:21:26;;;;;;;;;;;;;;;26.99;27.32;99544.63;5017632;28;1523;-38
2022/04/10 08:23:52;;;;;;;;;;;;;;;26.69;26.94;99531.63;5024285;28;904;-38
2022/04/10 08:26:17;;;;;;;;;;;;;;;27.01;26.97;99542.53;5025288;28;862;-37
2022/04/10 08:28:42;;;;;;;;;;;;;;;27.19;26.69;99543.78;5023208;28;715;-39
2022/04/10 08:31:07;;;;;;;;;;;;;;;27.16;26.90;99552.31;5022388;28;987;-40
2022/04/10 08:33:33;;;;;;;;;;;;;;;27.17;26.90;99549.38;5022399;28;865;-38
2022/04/10 08:35:58;;;;;;;;;;;;;;;26.93;26.66;99537.38;5021480;28;1959;-40
2022/04/10 08:38:23;;;;;;;;;;;;;;;27.00;26.87;99528.22;5016791;28;1038;-38
2022/04/10 08:40:49;;;;;;;;;;;;;;;27.00;27.26;99519.28;5021164;28;1020;-38
2022/04/10 08:43:14;;;;;;;;;;;;;;;27.01;27.08;99512.84;5018943;28;802;-39
2022/04/10 08:45:39;;;;;;;;;;;;;;;27.12;26.83;99516.81;5016753;28;944;-40
2022/04/10 08:48:05;;;;;;;;;;;;;;;27.22;26.50;99506.38;5020973;28;781;-40
2022/04/10 08:50:30;;;;;;;;;;;;;;;27.26;26.44;99510.31;5020807;28;747;-39
2022/04/10 08:52:56;;;;;;;;;;;;;;;27.33;26.52;99514.84;5020081;28;818;-38
2022/04/10 08:55:21;;;;;;;;;;;;;;;27.36;25.99;99514.44;5030112;28;1902;-38
2022/04/10 08:57:47;;;;;;;;;;;;;;;27.42;26.02;99515.44;5020537;28;770;-37
2022/04/10 09:00:12;;;;;;;;;;;;;;;27.39;25.60;99520.22;5018595;28;1122;-38
2022/04/10 09:02:45;;;;;;;;;;;;;;;27.12;26.68;99514.09;5020069;28;843;-36
2022/04/10 09:05:14;;;;;;;;;;;;;;;27.49;26.06;99521.63;5020351;28;837;-35
2022/04/10 09:07:40;;;;;;;;;;;;;;;27.39;26.40;99522.91;5021559;28;906;-38
2022/04/10 09:10:05;;;;;;;;;;;;;;;27.44;26.57;99518.75;5022465;28;952;-38
2022/04/10 09:12:31;;;;;;;;;;;;;;;27.35;25.89;99521.69;5032612;28;1057;-39
2022/04/10 09:15:02;;;;;;;;;;;;;;;27.10;26.36;99521.56;5019635;28;1906;-38
2022/04/10 09:17:29;;;;;;;;;;;;;;;27.23;26.67;99532.34;5020084;28;806;-39
2022/04/10 09:19:55;;;;;;;;;;;;;;;27.31;26.26;99525.84;5021597;28;834;-38
2022/04/10 09:22:21;;;;;;;;;;;;;;;27.35;26.77;99519.00;5022270;28;1518;-38
2022/04/10 09:25:04;;;;;;;;;;;;;;;27.41;26.52;99511.09;5026324;28;880;-37
2022/04/10 09:27:33;;;;;;;;;;;;;;;27.38;26.81;99518.56;5024241;28;1139;-39
2022/04/10 09:29:59;;;;;;;;;;;;;;;27.47;26.60;99512.91;5026004;28;1251;-39
2022/04/10 09:32:43;;;;;;;;;;;;;;;27.41;26.23;99516.50;5020023;28;796;-39
2022/04/10 09:35:09;;;;;;;;;;;;;;;27.33;26.44;99514.84;5019217;28;1902;-39
2022/04/10 09:37:54;;;;;;;;;;;;;;;27.44;26.31;99503.38;5019465;28;806;-38
2022/04/10 09:40:29;;;;;;;;;;;;;;;27.47;25.90;99510.22;5025111;28;2065;-40
2022/04/10 09:43:01;;;;;;;;;;;;;;;27.45;25.63;99513.13;5019745;28;786;-39
2022/04/10 09:45:27;;;;;;;;;;;;;;;27.59;25.75;99513.06;5022003;28;797;-38
2022/04/10 09:47:52;;;;;;;;;;;;;;;27.57;25.55;99513.28;5022186;28;750;-39
2022/04/10 09:50:18;;;;;;;;;;;;;;;27.54;25.81;99508.31;5019635;28;948;-39
2022/04/10 09:52:43;;;;;;;;;;;;;;;27.37;25.48;99510.69;5018080;28;755;-38
2022/04/10 09:55:13;;;;;;;;;;;;;;;27.30;26.13;99496.38;5020640;28;1906;-39
2022/04/10 09:57:38;;;;;;;;;;;;;;;27.54;25.78;99505.63;5016875;28;1194;-37
2022/04/10 10:00:04;;;;;;;;;;;;;;;27.42;25.98;99494.66;5019026;28;1077;-39
2022/04/10 10:02:30;;;;;;;;;;;;;;;27.40;26.00;99502.16;5034633;28;1020;-39
2022/04/10 10:04:56;;;;;;;;;;;;;;;27.41;26.21;99494.88;5034448;28;1318;-40
2022/04/10 10:07:21;;;;;;;;;;;;;;;27.34;26.45;99493.03;5029254;28;873;-39
2022/04/10 10:09:48;;;;;;;;;;;;;;;27.30;26.33;99488.28;5021831;28;892;-39
2022/04/10 10:12:13;;;;;;;;;;;;;;;27.21;26.61;99487.72;5030065;28;931;-37
2022/04/10 10:14:39;;;;;;;;;;;;;;;27.30;26.21;99499.06;5018525;28;1964;-38
2022/04/10 10:17:05;;;;;;;;;;;;;;;27.33;26.43;99502.19;5021619;28;1141;-38
2022/04/10 10:19:30;;;;;;;;;;;;;;;27.35;26.42;99512.75;5025669;28;1109;-40
2022/04/10 10:21:56;;;;;;;;;;;;;;;27.09;26.78;99503.75;5030943;28;1385;-38
2022/04/10 10:24:24;;;;;;;;;;;;;;;27.32;26.65;99505.09;5019298;28;877;-37
2022/04/10 10:27:04;;;;;;;;;;;;;;;27.45;25.99;99510.44;5019041;28;751;-37
2022/04/10 10:29:48;;;;;;;;;;;;;;;27.20;26.61;99507.63;5021727;28;850;-36
2022/04/10 10:32:32;;;;;;;;;;;;;;;27.43;26.51;99515.22;5028418;28;1310;-36
2022/04/10 10:34:57;;;;;;;;;;;;;;;27.70;25.85;99517.81;5018560;28;1957;-38
2022/04/10 10:37:26;;;;;;;;;;;;;;;27.31;26.92;99519.66;5028321;28;762;-36
2022/04/10 10:39:51;;;;;;;;;;;;;;;27.01;27.29;99526.34;5031276;28;1257;-29
2022/04/10 10:42:16;;;;;;;;;;;;;;;26.85;27.45;99519.53;5026313;28;1064;-31
2022/04/10 10:44:42;;;;;;;;;;;;;;;26.77;27.50;99512.50;5034756;28;1152;-34
2022/04/10 10:47:18;;;;;;;;;;;;;;;27.07;26.44;99503.94;5032319;28;1235;-34
2022/04/10 10:49:44;;;;;;;;;;;;;;;26.49;26.77;99529.78;5029594;28;1136;-33
2022/04/10 10:52:10;;;;;;;;;;;;;;;26.25;27.40;99521.25;5029309;28;1179;-34
2022/04/10 10:54:35;;;;;;;;;;;;;;;26.29;26.91;99533.28;5023784;28;1997;-32
2022/04/10 10:57:19;;;;;;;;;;;;;;;26.49;27.00;99538.69;5027641;28;1016;-29
2022/04/10 10:59:45;;;;;;;;;;;;;;;26.15;26.92;99540.53;5018391;28;782;-31
2022/04/10 11:02:14;;;;;;;;;;;;;;;26.21;26.75;99542.38;5029636;28;1263;-30
2022/04/10 11:04:39;;;;;;;;;;;;;;;26.09;27.08;99552.13;5028124;28;1195;-34
2022/04/10 11:07:20;;;;;;;;;;;;;;;25.81;27.28;99556.63;5018353;28;810;-34
2022/04/10 11:09:49;;;;;;;;;;;;;;;25.63;28.03;99544.56;5023022;28;875;-34
2022/04/10 11:12:14;;;;;;;;;;;;;;;25.89;27.79;99552.94;5022016;28;849;-36
2022/04/10 11:14:40;;;;;;;;;;;;;;;25.72;27.72;99553.28;5018946;28;1959;-36
2022/04/10 11:17:15;;;;;;;;;;;;;;;25.51;27.89;99560.44;5017216;28;823;-35
2022/04/10 11:19:45;;;;;;;;;;;;;;;25.14;28.76;99557.97;5017927;28;806;-35
2022/04/10 11:22:16;;;;;;;;;;;;;;;25.18;28.97;99556.56;5018081;28;786;-36
2022/04/10 11:24:42;;;;;;;;;;;;;;;25.48;28.20;99565.38;5021947;28;872;-34
2022/04/10 11:27:11;;;;;;;;;;;;;;;25.35;28.45;99550.00;5017388;28;798;-36
2022/04/10 11:29:36;;;;;;;;;;;;;;;25.40;28.42;99550.25;5017626;28;876;-34
2022/04/10 11:32:05;;;;;;;;;;;;;;;25.58;28.24;99557.75;5015995;28;1153;-37
2022/04/10 11:34:30;;;;;;;;;;;;;;;25.62;28.16;99561.72;5017548;28;1956;-32
2022/04/10 11:36:57;;;;;;;;;;;;;;;25.33;28.44;99571.75;5022430;28;845;-35
2022/04/10 11:39:22;;;;;;;;;;;;;;;24.77;29.21;99571.59;5017882;28;1034;-36
2022/04/10 11:41:47;;;;;;;;;;;;;;;24.80;29.36;99576.59;5017634;28;798;-37
2022/04/10 11:44:13;;;;;;;;;;;;;;;24.76;29.29;99583.38;5015873;28;859;-39
2022/04/10 11:46:38;;;;;;;;;;;;;;;25.25;28.46;99582.69;5016040;28;967;-38
2022/04/10 11:49:03;;;;;;;;;;;;;;;25.65;27.73;99576.66;5018901;28;775;-39
2022/04/10 11:51:29;;;;;;;;;;;;;;;25.69;27.71;99575.25;5021643;28;1168;-40
2022/04/10 11:53:55;;;;;;;;;;;;;;;25.78;27.34;99576.72;5017310;28;1910;-38
2022/04/10 11:56:20;;;;;;;;;;;;;;;25.82;27.41;99574.47;5022081;28;1022;-38
2022/04/10 11:58:45;;;;;;;;;;;;;;;25.92;27.25;99588.34;5015590;28;822;-38
2022/04/10 12:01:12;;;;;;;;;;;;;;;25.96;27.13;99575.31;5024555;28;1089;-39
2022/04/10 12:03:40;;;;;;;;;;;;;;;26.01;27.20;99570.13;5020989;28;971;-38
2022/04/10 12:06:06;;;;;;;;;;;;;;;26.06;26.83;99572.22;5029724;28;882;-39
2022/04/10 12:08:31;;;;;;;;;;;;;;;26.01;26.79;99564.75;5029179;28;1244;-38
2022/04/10 12:10:57;;;;;;;;;;;;;;;26.12;26.66;99563.34;5029830;28;1198;-38
2022/04/10 12:13:29;;;;;;;;;;;;;;;26.07;27.07;99563.13;5029452;28;813;-37
2022/04/10 12:15:58;;;;;;;;;;;;;;;26.04;26.90;99569.72;5017003;28;1894;-38
2022/04/10 12:18:23;;;;;;;;;;;;;;;26.09;26.85;99582.56;5016329;28;1438;-41
2022/04/10 12:20:55;;;;;;;;;;;;;;;26.08;26.67;99578.25;5026135;28;1120;-33
2022/04/10 12:23:21;;;;;;;;;;;;;;;26.00;26.91;99570.34;5036066;28;966;-37
2022/04/10 12:25:47;;;;;;;;;;;;;;;26.21;26.57;99580.13;5024717;28;876;-39
2022/04/10 12:28:13;;;;;;;;;;;;;;;26.09;26.96;99569.09;5029685;28;798;-37
2022/04/10 12:30:38;;;;;;;;;;;;;;;25.98;27.00;99575.94;5022270;28;766;-38
2022/04/10 12:33:04;;;;;;;;;;;;;;;25.96;26.69;99575.31;5023054;28;852;-39
2022/04/10 12:35:35;;;;;;;;;;;;;;;25.97;26.80;99586.91;5022135;28;1898;-38
2022/04/10 12:38:01;;;;;;;;;;;;;;;25.88;26.72;99595.19;5023187;28;1285;-40
2022/04/10 12:40:27;;;;;;;;;;;;;;;26.01;26.34;99607.03;5030100;28;931;-34
2022/04/10 12:42:56;;;;;;;;;;;;;;;25.82;26.67;99616.72;5023171;28;846;-35
2022/04/10 12:45:21;;;;;;;;;;;;;;;25.94;26.53;99616.97;5022919;28;1473;-36
2022/04/10 12:47:47;;;;;;;;;;;;;;;25.70;26.68;99613.78;5032512;28;1094;-37
2022/04/10 12:50:19;;;;;;;;;;;;;;;25.62;26.49;99612.91;5028266;28;1034;-34
2022/04/10 12:52:45;;;;;;;;;;;;;;;25.43;27.04;99611.75;5027182;28;1395;-37
2022/04/10 12:55:20;;;;;;;;;;;;;;;25.39;27.08;99603.25;5035734;28;1910;-36
2022/04/10 12:57:51;;;;;;;;;;;;;;;25.42;27.02;99605.53;5036657;28;1120;-37
2022/04/10 13:00:27;;;;;;;;;;;;;;;25.26;27.19;99611.25;5033423;28;849;-33